createdAt,value
2019-05-06T00:01:00.293Z,93.9
2019-05-06T00:02:01.061Z,94.3
2019-05-06T00:03:01.830Z,94.1
2019-05-06T00:05:06.572Z,94.2
2019-05-06T00:06:07.322Z,94
2019-05-06T00:07:08.109Z,93.9
2019-05-06T00:08:08.867Z,94.2
2019-05-06T00:09:09.623Z,94.1
2019-05-06T00:10:10.379Z,94.2
2019-05-06T00:11:11.143Z,94
2019-05-06T00:12:11.935Z,94
2019-05-06T00:13:15.064Z,93.9
2019-05-06T00:15:19.359Z,93.9
2019-05-06T00:16:20.123Z,94
2019-05-06T00:17:20.942Z,94.1
2019-05-06T00:18:21.701Z,94.1
2019-05-06T00:19:24.845Z,94.1
2019-05-06T00:20:25.585Z,94.2
2019-05-06T00:21:26.346Z,94.2
2019-05-06T00:22:27.140Z,94.3
2019-05-06T00:23:27.904Z,94.2
2019-05-06T00:25:34.716Z,94.4
2019-05-06T00:26:35.586Z,94.4
2019-05-06T00:27:36.378Z,94.3
2019-05-06T00:28:37.156Z,94.3
2019-05-06T00:29:37.909Z,94.2
2019-05-06T00:30:38.670Z,94.2
2019-05-06T00:31:39.433Z,94.3
2019-05-06T00:32:40.229Z,94.1
2019-05-06T00:33:40.989Z,94.1
2019-05-06T00:35:47.296Z,94.1
2019-05-06T00:36:48.058Z,94.1
2019-05-06T00:37:48.853Z,94
2019-05-06T00:39:50.114Z,94
2019-05-06T00:40:50.890Z,94.1
2019-05-06T00:41:51.646Z,94.1
2019-05-06T00:42:55.039Z,94
2019-05-06T00:45:59.836Z,94.2
2019-05-06T00:47:00.605Z,94.2
2019-05-06T00:48:01.397Z,94.1
2019-05-06T00:49:04.325Z,94.1
2019-05-06T00:50:05.107Z,94
2019-05-06T00:51:05.867Z,94.2
2019-05-06T00:52:06.638Z,94.2
2019-05-06T00:54:07.920Z,94.2
2019-05-06T00:56:14.821Z,94
2019-05-06T00:57:15.574Z,94
2019-05-06T00:58:16.356Z,93.9
2019-05-06T00:59:17.125Z,93.9
2019-05-06T01:00:17.891Z,93.9
2019-05-06T01:02:30.916Z,93.9
2019-05-06T01:03:31.695Z,93.9
2019-05-06T01:04:35.065Z,94.1
2019-05-06T01:06:39.379Z,94.2
2019-05-06T01:07:40.136Z,94
2019-05-06T01:08:40.912Z,94.1
2019-05-06T01:09:43.982Z,94.2
2019-05-06T01:10:45.762Z,93.9
2019-05-06T01:11:46.540Z,93.9
2019-05-06T01:12:47.299Z,93.9
2019-05-06T01:13:48.075Z,94
2019-05-06T01:14:48.833Z,93.8
2019-05-06T01:16:56.355Z,94
2019-05-06T01:17:57.134Z,94
2019-05-06T01:18:57.935Z,94.1
2019-05-06T01:19:58.702Z,93.9
2019-05-06T01:20:59.460Z,93.9
2019-05-06T01:22:00.224Z,93.9
2019-05-06T01:23:00.990Z,94
2019-05-06T01:24:04.198Z,94
2019-05-06T01:25:04.957Z,93.9
2019-05-06T01:27:07.273Z,94
2019-05-06T01:28:08.032Z,94
2019-05-06T01:29:08.820Z,93.9
2019-05-06T01:30:14.548Z,94
2019-05-06T01:31:15.305Z,94.3
2019-05-06T01:32:16.074Z,94
2019-05-06T01:33:18.852Z,93.9
2019-05-06T01:34:19.625Z,94
2019-05-06T01:35:20.392Z,94.2
2019-05-06T01:37:28.412Z,94.1
2019-05-06T01:38:29.165Z,94
2019-05-06T01:39:29.943Z,94
2019-05-06T01:40:30.695Z,94
2019-05-06T01:41:33.694Z,94.1
2019-05-06T01:42:35.253Z,94
2019-05-06T01:43:36.014Z,94
2019-05-06T01:44:36.805Z,94.1
2019-05-06T01:45:37.572Z,94.2
2019-05-06T01:47:39.873Z,94.3
2019-05-06T01:48:40.638Z,94.3
2019-05-06T01:49:41.424Z,94.2
2019-05-06T01:50:42.182Z,94.4
2019-05-06T01:51:45.101Z,94.2
2019-05-06T01:52:45.858Z,94.2
2019-05-06T01:53:46.621Z,94.1
2019-05-06T01:54:47.415Z,94.1
2019-05-06T01:55:48.174Z,94.1
2019-05-06T01:57:55.404Z,94.2
2019-05-06T01:58:56.169Z,94.1
2019-05-06T01:59:56.946Z,94
2019-05-06T02:02:04.789Z,93.9
2019-05-06T02:03:05.540Z,93.9
2019-05-06T02:04:06.304Z,94.1
2019-05-06T02:05:07.078Z,94.1
2019-05-06T02:06:07.838Z,94.3
2019-05-06T02:08:14.252Z,94.2
2019-05-06T02:09:15.001Z,94.2
2019-05-06T02:10:15.796Z,94.3
2019-05-06T02:11:16.562Z,94.2
2019-05-06T02:12:17.330Z,94.2
2019-05-06T02:13:18.097Z,94.1
2019-05-06T02:14:18.854Z,94.2
2019-05-06T02:15:19.646Z,94.2
2019-05-06T02:16:20.400Z,94.1
2019-05-06T02:18:26.086Z,94.2
2019-05-06T02:19:26.845Z,94.2
2019-05-06T02:20:27.654Z,94.2
2019-05-06T02:21:28.404Z,94.2
2019-05-06T02:22:29.170Z,94.3
2019-05-06T02:24:30.446Z,94.3
2019-05-06T02:25:31.221Z,94.4
2019-05-06T02:26:31.975Z,94.2
2019-05-06T02:28:36.454Z,94.2
2019-05-06T02:29:37.212Z,94.3
2019-05-06T02:30:38.003Z,94.2
2019-05-06T02:31:38.755Z,94.2
2019-05-06T02:33:40.014Z,94.2
2019-05-06T02:34:40.776Z,94.3
2019-05-06T02:35:41.574Z,94.2
2019-05-06T02:36:45.848Z,94.2
2019-05-06T02:38:56.535Z,94.2
2019-05-06T02:40:57.803Z,94.4
2019-05-06T02:41:58.567Z,94.4
2019-05-06T02:42:59.336Z,94.4
2019-05-06T02:44:04.466Z,94.4
2019-05-06T02:45:05.227Z,94.4
2019-05-06T02:46:06.002Z,94.3
2019-05-06T02:49:15.475Z,94.2
2019-05-06T02:50:16.248Z,94.3
2019-05-06T02:51:17.050Z,94.2
2019-05-06T02:52:17.787Z,94.3
2019-05-06T02:53:18.557Z,94.3
2019-05-06T02:54:19.321Z,94.3
2019-05-06T02:55:20.086Z,94.3
2019-05-06T02:56:24.234Z,94.4
2019-05-06T02:57:24.972Z,94.4
2019-05-06T02:59:27.437Z,94.3
2019-05-06T03:00:28.202Z,94.5
2019-05-06T03:01:28.983Z,94.5
2019-05-06T03:02:48.828Z,94.6
2019-05-06T03:03:49.569Z,94.4
2019-05-06T03:04:53.672Z,94.3
2019-05-06T03:05:54.430Z,94.5
2019-05-06T03:06:55.208Z,94.4
2019-05-06T03:07:58.546Z,94.4
2019-05-06T03:10:05.097Z,94.4
2019-05-06T03:11:05.871Z,94.3
2019-05-06T03:12:06.656Z,94.2
2019-05-06T03:13:07.419Z,94.3
2019-05-06T03:14:08.179Z,94.4
2019-05-06T03:15:08.947Z,94.5
2019-05-06T03:16:09.700Z,94.4
2019-05-06T03:17:13.638Z,94.5
2019-05-06T03:18:15.846Z,94.5
2019-05-06T03:20:18.152Z,94.8
2019-05-06T03:21:18.918Z,94.5
2019-05-06T03:22:19.709Z,94.7
2019-05-06T03:23:24.239Z,94.7
2019-05-06T03:24:25.002Z,94.8
2019-05-06T03:25:25.758Z,94.8
2019-05-06T03:26:26.523Z,94.8
2019-05-06T03:27:27.314Z,94.8
2019-05-06T03:28:33.857Z,94.7
2019-05-06T03:30:38.159Z,94.8
2019-05-06T03:31:38.919Z,94.8
2019-05-06T03:34:30.467Z,94.7
2019-05-06T03:37:54.461Z,94.5
2019-05-06T03:38:55.215Z,94.5
2019-05-06T03:39:55.993Z,94.6
2019-05-06T03:40:56.761Z,94.6
2019-05-06T03:41:57.517Z,94.6
2019-05-06T03:42:58.306Z,94.5
2019-05-06T03:43:59.070Z,94.5
2019-05-06T03:44:59.839Z,94.5
2019-05-06T03:46:00.609Z,94.4
2019-05-06T03:47:06.612Z,94.4
2019-05-06T03:49:08.932Z,94.4
2019-05-06T03:50:09.701Z,94.5
2019-05-06T03:51:14.507Z,94.5
2019-05-06T03:52:15.281Z,94.6
2019-05-06T03:53:16.074Z,94.6
2019-05-06T03:54:16.825Z,94.6
2019-05-06T03:55:17.595Z,94.6
2019-05-06T03:56:24.397Z,94.6
2019-05-06T03:57:25.161Z,94.6
2019-05-06T03:59:29.647Z,94.7
2019-05-06T04:00:34.212Z,94.7
2019-05-06T04:02:43.880Z,94.6
2019-05-06T04:03:57.714Z,94.5
2019-05-06T04:04:58.478Z,94.5
2019-05-06T04:05:59.245Z,94.6
2019-05-06T04:08:04.770Z,94.6
2019-05-06T04:10:08.815Z,94.5
2019-05-06T04:11:09.567Z,94.5
2019-05-06T04:12:13.441Z,94.5
2019-05-06T04:13:14.447Z,94.4
2019-05-06T04:14:15.235Z,94.4
2019-05-06T04:15:16.006Z,94.3
2019-05-06T04:17:17.272Z,94.5
2019-05-06T04:18:18.065Z,94.6
2019-05-06T04:20:25.574Z,94.5
2019-05-06T04:21:26.326Z,94.5
2019-05-06T04:22:27.084Z,94.8
2019-05-06T04:23:27.850Z,94.5
2019-05-06T04:24:28.646Z,94.5
2019-05-06T04:25:29.403Z,94.4
2019-05-06T04:26:33.163Z,94.4
2019-05-06T04:27:34.515Z,94.3
2019-05-06T04:28:35.339Z,94.3
2019-05-06T04:30:37.672Z,94.4
2019-05-06T04:31:38.430Z,94.3
2019-05-06T04:32:39.194Z,94.2
2019-05-06T04:33:39.960Z,94.5
2019-05-06T04:34:43.797Z,94.4
2019-05-06T04:35:44.564Z,94.5
2019-05-06T04:36:45.320Z,94.4
2019-05-06T04:37:46.094Z,94.3
2019-05-06T04:38:46.888Z,94.3
2019-05-06T04:40:55.251Z,94.5
2019-05-06T04:41:56.022Z,94.4
2019-05-06T04:42:56.793Z,94.4
2019-05-06T04:43:57.556Z,94.4
2019-05-06T04:44:58.348Z,94.4
2019-05-06T04:45:59.111Z,94.4
2019-05-06T04:46:59.870Z,94.4
2019-05-06T04:48:06.090Z,94.4
2019-05-06T04:49:15.543Z,94.6
2019-05-06T04:51:17.822Z,94.4
2019-05-06T04:52:18.593Z,94.3
2019-05-06T04:53:19.355Z,94.2
2019-05-06T04:54:20.103Z,94.3
2019-05-06T04:55:26.716Z,94.2
2019-05-06T04:56:27.476Z,94.1
2019-05-06T04:57:28.238Z,94.2
2019-05-06T04:58:28.995Z,94.3
2019-05-06T04:59:32.768Z,94.3
2019-05-06T05:01:37.871Z,94.3
2019-05-06T05:02:38.643Z,94.3
2019-05-06T05:03:39.393Z,94.2
2019-05-06T05:04:43.423Z,94.4
2019-05-06T05:05:45.843Z,94.4
2019-05-06T05:06:46.615Z,94.3
2019-05-06T05:07:47.379Z,94.3
2019-05-06T05:08:48.139Z,94.4
2019-05-06T05:09:48.907Z,94.3
2019-05-06T05:11:54.721Z,94.3
2019-05-06T05:12:55.489Z,94.2
2019-05-06T05:13:56.257Z,94.2
2019-05-06T05:14:57.028Z,94.2
2019-05-06T05:15:57.815Z,94
2019-05-06T05:16:58.575Z,93.9
2019-05-06T05:17:59.350Z,93.9
2019-05-06T05:19:00.115Z,93.9
2019-05-06T05:20:03.355Z,94
2019-05-06T05:22:18.081Z,93.9
2019-05-06T05:23:18.858Z,93.8
2019-05-06T05:24:19.625Z,93.8
2019-05-06T05:25:22.286Z,93.8
2019-05-06T05:26:23.375Z,93.7
2019-05-06T05:27:24.141Z,93.7
2019-05-06T05:28:24.898Z,93.6
2019-05-06T05:29:25.657Z,93.7
2019-05-06T05:30:26.419Z,93.8
2019-05-06T05:32:28.733Z,93.8
2019-05-06T05:33:29.497Z,93.8
2019-05-06T05:34:43.723Z,93.7
2019-05-06T05:35:44.443Z,93.8
2019-05-06T05:36:45.228Z,93.9
2019-05-06T05:37:45.979Z,93.8
2019-05-06T05:38:46.783Z,93.8
2019-05-06T05:39:47.535Z,93.9
2019-05-06T05:40:48.298Z,93.8
2019-05-06T05:42:54.512Z,94
2019-05-06T05:43:55.273Z,93.9
2019-05-06T05:44:56.041Z,93.9
2019-05-06T05:45:56.800Z,93.7
2019-05-06T05:46:57.575Z,93.9
2019-05-06T05:47:58.340Z,94
2019-05-06T05:48:59.118Z,93.8
2019-05-06T05:53:06.223Z,93.8
2019-05-06T05:54:07.001Z,93.9
2019-05-06T05:55:07.766Z,93.9
2019-05-06T05:56:08.526Z,93.8
2019-05-06T05:57:09.312Z,93.7
2019-05-06T05:58:13.819Z,93.7
2019-05-06T06:01:15.586Z,93.9
2019-05-06T06:03:22.192Z,94
2019-05-06T06:04:23.265Z,94
2019-05-06T06:05:24.052Z,94.1
2019-05-06T06:06:24.815Z,94.1
2019-05-06T06:07:29.770Z,94.1
2019-05-06T06:08:32.979Z,94
2019-05-06T06:09:34.237Z,94.5
2019-05-06T06:10:34.998Z,94.1
2019-05-06T06:11:35.784Z,93.9
2019-05-06T06:13:40.089Z,93.9
2019-05-06T06:15:48.461Z,94.2
2019-05-06T06:16:49.219Z,94
2019-05-06T06:17:52.511Z,93.8
2019-05-06T06:18:53.278Z,93.9
2019-05-06T06:19:54.199Z,94.1
2019-05-06T06:20:54.961Z,93.8
2019-05-06T06:21:55.711Z,93.8
2019-05-06T06:24:02.572Z,93.7
2019-05-06T06:25:05.257Z,93.8
2019-05-06T06:26:09.025Z,94.1
2019-05-06T06:27:09.783Z,93.8
2019-05-06T06:28:12.638Z,93.8
2019-05-06T06:29:13.469Z,94
2019-05-06T06:30:14.225Z,93.4
2019-05-06T06:31:14.992Z,93.5
2019-05-06T06:32:15.755Z,93.5
2019-05-06T06:34:22.406Z,93.7
2019-05-06T06:35:23.659Z,93.3
2019-05-06T06:36:24.432Z,92.9
2019-05-06T06:37:25.197Z,93
2019-05-06T06:38:26.141Z,92.9
2019-05-06T06:39:26.899Z,92.8
2019-05-06T06:40:27.700Z,92.9
2019-05-06T06:41:28.455Z,92.9
2019-05-06T06:42:29.217Z,92.7
2019-05-06T06:44:35.608Z,93.1
2019-05-06T06:45:36.367Z,93.1
2019-05-06T06:46:37.133Z,92.7
2019-05-06T06:47:37.896Z,92.6
2019-05-06T06:48:38.677Z,93
2019-05-06T06:49:39.451Z,93.1
2019-05-06T06:50:42.140Z,92.8
2019-05-06T06:51:43.403Z,92.4
2019-05-06T06:52:44.175Z,92.4
2019-05-06T06:54:48.494Z,92.3
2019-05-06T06:55:49.256Z,92.4
2019-05-06T06:57:09.918Z,92
2019-05-06T06:58:13.276Z,91.8
2019-05-06T06:59:14.065Z,91.4
2019-05-06T07:00:14.833Z,91.5
2019-05-06T07:01:15.590Z,92
2019-05-06T07:02:16.363Z,92.2
2019-05-06T07:03:17.121Z,91.9
2019-05-06T07:05:29.329Z,92.1
2019-05-06T07:06:30.102Z,92
2019-05-06T07:07:48.191Z,92.2
2019-05-06T07:08:48.956Z,92.2
2019-05-06T07:09:49.731Z,92
2019-05-06T07:10:52.637Z,91.9
2019-05-06T07:11:53.449Z,92.3
2019-05-06T07:12:54.208Z,92.4
2019-05-06T07:13:54.970Z,92.1
2019-05-06T07:15:57.299Z,92.5
2019-05-06T07:16:58.065Z,92.6
2019-05-06T07:17:58.827Z,92.6
2019-05-06T07:18:59.596Z,92.6
2019-05-06T07:20:03.007Z,92.6
2019-05-06T07:21:07.189Z,92.6
2019-05-06T07:22:07.990Z,92.3
2019-05-06T07:23:08.757Z,92.5
2019-05-06T07:24:09.510Z,92.5
2019-05-06T07:26:14.443Z,93.1
2019-05-06T07:27:15.216Z,92.8
2019-05-06T07:28:15.980Z,92.8
2019-05-06T07:29:27.209Z,92.9
2019-05-06T07:30:28.002Z,92.8
2019-05-06T07:31:28.773Z,93
2019-05-06T07:33:30.024Z,92.8
2019-05-06T07:34:32.943Z,93.2
2019-05-06T07:35:44.385Z,93.3
2019-05-06T07:36:45.141Z,92.8
2019-05-06T07:37:45.919Z,92.6
2019-05-06T07:38:46.675Z,92.5
2019-05-06T07:39:47.447Z,92.5
2019-05-06T07:40:48.237Z,92.7
2019-05-06T07:41:48.997Z,92.5
2019-05-06T07:43:52.696Z,92.5
2019-05-06T07:44:53.837Z,92.3
2019-05-06T07:46:58.181Z,92.2
2019-05-06T07:47:58.953Z,92.4
2019-05-06T07:48:59.721Z,91.9
2019-05-06T07:51:03.940Z,91.5
2019-05-06T07:52:04.711Z,91.9
2019-05-06T07:53:05.477Z,92.1
2019-05-06T07:55:06.732Z,91
2019-05-06T07:57:14.307Z,91.3
2019-05-06T07:58:15.081Z,91
2019-05-06T07:59:15.848Z,90.6
2019-05-06T08:00:16.611Z,90.8
2019-05-06T08:01:17.426Z,90.6
2019-05-06T08:02:18.173Z,89.6
2019-05-06T08:03:18.941Z,89.4
2019-05-06T08:04:19.714Z,89.3
2019-05-06T08:05:22.489Z,89.6
2019-05-06T08:07:30.186Z,89.7
2019-05-06T08:08:34.509Z,88.1
2019-05-06T08:09:35.367Z,86.3
2019-05-06T08:10:36.135Z,86.9
2019-05-06T08:11:36.926Z,84.1
2019-05-06T08:12:37.696Z,84.5
2019-05-06T08:13:38.462Z,86.7
2019-05-06T08:14:39.219Z,85.4
2019-05-06T08:15:42.170Z,84.9
2019-05-06T08:17:46.835Z,83
2019-05-06T08:18:47.603Z,85.4
2019-05-06T08:19:48.369Z,85.5
2019-05-06T08:20:49.123Z,82.9
2019-05-06T08:22:57.077Z,83.2
2019-05-06T08:23:57.847Z,82.1
2019-05-06T08:24:58.608Z,82
2019-05-06T08:26:18.295Z,82.7
2019-05-06T08:28:44.784Z,82.6
2019-05-06T08:29:45.511Z,81.2
2019-05-06T08:30:46.278Z,80.1
2019-05-06T08:31:47.043Z,81.7
2019-05-06T08:32:47.815Z,80.5
2019-05-06T08:33:48.637Z,78.3
2019-05-06T08:34:49.366Z,79.8
2019-05-06T08:35:50.127Z,82.3
2019-05-06T08:36:53.485Z,81.7
2019-05-06T08:38:55.782Z,82
2019-05-06T08:39:56.543Z,81.2
2019-05-06T08:40:57.310Z,81.5
2019-05-06T08:41:58.075Z,76.6
2019-05-06T08:42:58.853Z,78.3
2019-05-06T08:43:59.662Z,78.6
2019-05-06T08:45:03.357Z,78.1
2019-05-06T08:46:07.506Z,79.1
2019-05-06T08:47:13.047Z,79.6
2019-05-06T08:49:17.602Z,82.3
2019-05-06T08:50:18.360Z,77.8
2019-05-06T08:51:19.138Z,77.4
2019-05-06T08:52:21.795Z,78.3
2019-05-06T08:53:25.049Z,80.2
2019-05-06T08:54:25.816Z,82.4
2019-05-06T08:55:26.579Z,81.4
2019-05-06T08:56:27.341Z,81.6
2019-05-06T08:57:28.123Z,79.5
2019-05-06T08:59:34.207Z,78.3
2019-05-06T09:00:34.964Z,79.8
2019-05-06T09:01:35.724Z,76.7
2019-05-06T09:02:36.498Z,77.7
2019-05-06T09:03:37.284Z,77.5
2019-05-06T09:04:38.040Z,76.2
2019-05-06T09:05:38.803Z,76.5
2019-05-06T09:06:39.576Z,74.7
2019-05-06T09:07:40.341Z,73.9
2019-05-06T09:09:45.259Z,74.9
2019-05-06T09:10:46.013Z,75.8
2019-05-06T09:11:46.778Z,76.5
2019-05-06T09:12:47.540Z,77.6
2019-05-06T09:13:48.361Z,79.1
2019-05-06T09:14:49.114Z,78.7
2019-05-06T09:15:49.885Z,78.8
2019-05-06T09:16:54.875Z,78.7
2019-05-06T09:17:55.657Z,77.2
2019-05-06T09:20:02.481Z,76.7
2019-05-06T09:21:03.794Z,76.9
2019-05-06T09:23:05.582Z,77.2
2019-05-06T09:24:06.367Z,76.8
2019-05-06T09:25:07.130Z,77.8
2019-05-06T09:26:07.912Z,78.4
2019-05-06T09:27:08.673Z,79.4
2019-05-06T09:28:09.439Z,78.7
2019-05-06T09:30:16.062Z,77.8
2019-05-06T09:31:16.828Z,76.9
2019-05-06T09:32:17.608Z,75.5
2019-05-06T09:33:18.376Z,72.9
2019-05-06T09:34:19.165Z,75.9
2019-05-06T09:35:22.296Z,77.6
2019-05-06T09:36:38.909Z,78.1
2019-05-06T09:37:55.225Z,76
2019-05-06T09:38:55.985Z,77.6
2019-05-06T09:41:00.306Z,79.3
2019-05-06T09:42:05.365Z,80.9
2019-05-06T09:43:06.125Z,79.8
2019-05-06T09:44:06.889Z,81.6
2019-05-06T09:45:07.669Z,81.9
2019-05-06T09:46:08.443Z,83
2019-05-06T09:47:09.220Z,83.2
2019-05-06T09:48:13.047Z,84.8
2019-05-06T09:49:13.802Z,84.6
2019-05-06T09:51:17.860Z,85.5
2019-05-06T09:52:18.640Z,85
2019-05-06T09:53:19.423Z,86.9
2019-05-06T09:54:20.199Z,88.7
2019-05-06T09:55:23.930Z,87.8
2019-05-06T09:56:24.710Z,87.7
2019-05-06T09:57:25.657Z,88.1
2019-05-06T09:59:26.920Z,88
2019-05-06T10:01:36.076Z,89.3
2019-05-06T10:02:36.844Z,89.4
2019-05-06T10:03:37.604Z,90.3
2019-05-06T10:04:38.372Z,90
2019-05-06T10:05:39.162Z,89.7
2019-05-06T10:06:59.751Z,90.3
2019-05-06T10:08:04.103Z,90.3
2019-05-06T10:09:05.954Z,90.7
2019-05-06T10:10:06.735Z,87.8
2019-05-06T10:12:09.057Z,87.7
2019-05-06T10:13:09.822Z,88.7
2019-05-06T10:14:13.273Z,88
2019-05-06T10:15:14.038Z,89
2019-05-06T10:16:14.833Z,88.1
2019-05-06T10:17:15.589Z,86.9
2019-05-06T10:18:16.343Z,86.5
2019-05-06T10:19:17.138Z,83.3
2019-05-06T10:20:17.900Z,81.2
2019-05-06T10:22:24.443Z,85.4
2019-05-06T10:23:25.210Z,83.6
2019-05-06T10:24:25.977Z,85.2
2019-05-06T10:25:26.734Z,83.2
2019-05-06T10:26:27.535Z,83.5
2019-05-06T10:27:28.295Z,82.3
2019-05-06T10:28:29.093Z,81.8
2019-05-06T10:29:29.844Z,82.4
2019-05-06T10:30:33.296Z,82.9
2019-05-06T10:32:37.640Z,80.5
2019-05-06T10:33:38.396Z,83.3
2019-05-06T10:34:39.162Z,83
2019-05-06T10:35:39.922Z,81.7
2019-05-06T10:36:43.567Z,80.2
2019-05-06T10:37:44.327Z,79.7
2019-05-06T10:38:45.086Z,80.1
2019-05-06T10:39:45.859Z,81.3
2019-05-06T10:41:08.004Z,81.7
2019-05-06T10:43:14.990Z,80.5
2019-05-06T10:44:15.754Z,81.8
2019-05-06T10:45:16.515Z,81.7
2019-05-06T10:46:17.284Z,81.4
2019-05-06T10:47:18.056Z,81.5
2019-05-06T10:48:18.811Z,81.8
2019-05-06T10:49:19.582Z,81.3
2019-05-06T10:50:23.771Z,81.9
2019-05-06T10:51:24.585Z,80.7
2019-05-06T10:53:26.940Z,81.4
2019-05-06T10:54:27.700Z,82.5
2019-05-06T10:55:28.462Z,81.6
2019-05-06T10:56:29.226Z,80.3
2019-05-06T10:57:33.628Z,80.1
2019-05-06T10:58:34.389Z,77.8
2019-05-06T10:59:35.152Z,78.7
2019-05-06T11:00:35.908Z,78
2019-05-06T11:01:36.672Z,79.2
2019-05-06T11:03:42.774Z,79.4
2019-05-06T11:04:43.560Z,77.8
2019-05-06T11:05:44.353Z,79
2019-05-06T11:06:45.133Z,78.7
2019-05-06T11:07:45.910Z,79
2019-05-06T11:08:46.667Z,76.2
2019-05-06T11:09:47.430Z,79.4
2019-05-06T11:10:48.193Z,78.7
2019-05-06T11:11:48.950Z,77
2019-05-06T11:13:55.264Z,77.1
2019-05-06T11:14:56.621Z,76.7
2019-05-06T11:15:57.387Z,77.8
2019-05-06T11:16:58.162Z,77.2
2019-05-06T11:17:58.944Z,77.8
2019-05-06T11:18:59.712Z,78
2019-05-06T11:20:14.274Z,78
2019-05-06T11:22:15.500Z,78
2019-05-06T11:24:19.840Z,77.5
2019-05-06T11:25:23.182Z,76.8
2019-05-06T11:26:24.584Z,77.3
2019-05-06T11:27:42.402Z,76.7
2019-05-06T11:28:46.027Z,77.1
2019-05-06T11:29:46.790Z,77.5
2019-05-06T11:30:47.556Z,77
2019-05-06T11:31:48.320Z,76
2019-05-06T11:32:49.076Z,75.3
2019-05-06T11:34:55.809Z,75.9
2019-05-06T11:36:57.059Z,76
2019-05-06T11:37:57.823Z,76
2019-05-06T11:38:58.604Z,76
2019-05-06T11:39:59.372Z,75.8
2019-05-06T11:41:00.146Z,76.7
2019-05-06T11:42:36.103Z,76
2019-05-06T11:43:36.844Z,76.9
2019-05-06T11:45:45.683Z,77.4
2019-05-06T11:46:46.456Z,77.7
2019-05-06T11:47:47.221Z,76.6
2019-05-06T11:48:47.988Z,76.5
2019-05-06T11:49:48.769Z,75.2
2019-05-06T11:50:49.520Z,74.7
2019-05-06T11:51:50.280Z,75.8
2019-05-06T11:52:56.599Z,76.4
2019-05-06T11:53:57.347Z,73.8
2019-05-06T11:56:02.355Z,75.6
2019-05-06T11:57:03.786Z,76.5
2019-05-06T11:58:04.544Z,76.9
2019-05-06T11:59:05.312Z,77.1
2019-05-06T12:00:06.095Z,77.6
2019-05-06T12:01:06.859Z,76.3
2019-05-06T12:02:07.625Z,76.2
2019-05-06T12:03:08.424Z,76.3
2019-05-06T12:04:09.190Z,76.8
2019-05-06T12:07:17.010Z,75.6
2019-05-06T12:08:17.824Z,75.4
2019-05-06T12:09:22.217Z,75.5
2019-05-06T12:10:23.306Z,76.5
2019-05-06T12:11:24.651Z,76.2
2019-05-06T12:12:25.417Z,76.4
2019-05-06T12:13:26.182Z,75.8
2019-05-06T12:14:26.955Z,75.9
2019-05-06T12:16:34.247Z,74.6
2019-05-06T12:17:35.012Z,74.2
2019-05-06T12:18:35.795Z,75
2019-05-06T12:19:36.569Z,75.5
2019-05-06T12:20:37.363Z,75.2
2019-05-06T12:21:38.125Z,74.6
2019-05-06T12:22:38.897Z,76.4
2019-05-06T12:23:39.674Z,72.2
2019-05-06T12:24:45.276Z,72.8
2019-05-06T12:26:49.576Z,72.7
2019-05-06T12:27:53.477Z,72.1
2019-05-06T12:28:56.913Z,71.5
2019-05-06T12:29:57.687Z,73.3
2019-05-06T12:30:58.482Z,73.2
2019-05-06T12:31:59.249Z,74.4
2019-05-06T12:33:00.010Z,75
2019-05-06T12:34:03.688Z,73.6
2019-05-06T12:35:04.456Z,73
2019-05-06T12:37:08.807Z,72.4
2019-05-06T12:38:31.435Z,73
2019-05-06T12:39:33.935Z,72.7
2019-05-06T12:40:34.690Z,72.7
2019-05-06T12:41:35.477Z,72.4
2019-05-06T12:42:36.237Z,71.5
2019-05-06T12:43:37.017Z,71.8
2019-05-06T12:44:37.780Z,71.9
2019-05-06T12:45:38.548Z,72.3
2019-05-06T12:47:44.701Z,71.3
2019-05-06T12:48:45.473Z,73
2019-05-06T12:49:46.243Z,73.5
2019-05-06T12:50:46.996Z,73.1
2019-05-06T12:51:47.820Z,72.1
2019-05-06T12:52:48.577Z,72
2019-05-06T12:53:49.333Z,71.4
2019-05-06T12:54:50.143Z,72.5
2019-05-06T12:55:54.503Z,73.4
2019-05-06T12:57:56.830Z,70.1
2019-05-06T12:58:57.575Z,71.2
2019-05-06T12:59:58.348Z,71.1
2019-05-06T13:00:59.117Z,69.6
2019-05-06T13:02:03.001Z,70.6
2019-05-06T13:03:03.765Z,69.9
2019-05-06T13:04:05.721Z,69.1
2019-05-06T13:05:06.484Z,68.8
2019-05-06T13:06:13.155Z,67.5
2019-05-06T13:08:58.208Z,69.3
2019-05-06T13:10:05.849Z,66.8
2019-05-06T13:11:06.617Z,68.1
2019-05-06T13:12:07.375Z,69.1
2019-05-06T13:13:08.160Z,69.5
2019-05-06T13:14:08.927Z,69
2019-05-06T13:15:09.682Z,67
2019-05-06T13:16:13.489Z,66.6
2019-05-06T13:17:14.259Z,68.3
2019-05-06T13:19:18.323Z,68.5
2019-05-06T13:20:19.113Z,67
2019-05-06T13:21:22.488Z,67.8
2019-05-06T13:22:25.347Z,68.1
2019-05-06T13:23:26.964Z,68.2
2019-05-06T13:24:27.752Z,67.6
2019-05-06T13:25:28.506Z,67
2019-05-06T13:26:29.279Z,65.8
2019-05-06T13:27:30.039Z,63.9
2019-05-06T13:29:36.953Z,66.5
2019-05-06T13:30:37.722Z,66
2019-05-06T13:31:38.486Z,65.2
2019-05-06T13:32:39.253Z,65.4
2019-05-06T13:33:44.590Z,64.2
2019-05-06T13:34:45.995Z,64.1
2019-05-06T13:35:46.786Z,65.7
2019-05-06T13:36:47.767Z,64.8
2019-05-06T13:37:48.723Z,63.7
2019-05-06T13:39:15.622Z,64
2019-05-06T13:40:17.018Z,64.1
2019-05-06T13:41:18.041Z,61.9
2019-05-06T13:42:18.801Z,62.6
2019-05-06T13:43:19.569Z,63.2
2019-05-06T13:44:23.043Z,59.8
2019-05-06T13:45:23.792Z,61.1
2019-05-06T13:46:24.559Z,62.9
2019-05-06T13:47:25.467Z,62.5
2019-05-06T13:48:26.271Z,61.6
2019-05-06T13:50:29.093Z,60.2
2019-05-06T13:51:32.530Z,60.9
2019-05-06T13:52:33.271Z,63
2019-05-06T13:53:46.627Z,63.1
2019-05-06T13:54:47.413Z,61.9
2019-05-06T13:55:48.142Z,62.3
2019-05-06T13:56:52.296Z,62.9
2019-05-06T13:57:53.242Z,61.1
2019-05-06T13:58:54.008Z,62.7
2019-05-06T14:01:08.328Z,63.5
2019-05-06T14:02:09.666Z,62.8
2019-05-06T14:03:10.433Z,63.1
2019-05-06T14:04:13.659Z,61.5
2019-05-06T14:05:14.426Z,61.9
2019-05-06T14:06:15.187Z,62.9
2019-05-06T14:07:15.947Z,63.3
2019-05-06T14:08:16.715Z,62.5
2019-05-06T14:09:43.855Z,62.9
2019-05-06T14:11:03.121Z,62.7
2019-05-06T14:12:03.875Z,63.3
2019-05-06T14:13:04.636Z,63.6
2019-05-06T14:14:05.426Z,63.6
2019-05-06T14:15:06.193Z,65
2019-05-06T14:16:06.973Z,64.9
2019-05-06T14:17:07.732Z,64.9
2019-05-06T14:18:08.495Z,65.2
2019-05-06T14:19:09.280Z,65.5
2019-05-06T14:20:12.293Z,65.5
2019-05-06T14:22:16.836Z,64
2019-05-06T14:23:17.601Z,65.1
2019-05-06T14:24:18.380Z,65.2
2019-05-06T14:25:24.149Z,65.6
2019-05-06T14:26:24.913Z,66.1
2019-05-06T14:28:26.180Z,66.5
2019-05-06T14:29:26.963Z,66.7
2019-05-06T14:30:27.719Z,66.9
2019-05-06T14:32:34.429Z,67
2019-05-06T14:33:35.187Z,66.7
2019-05-06T14:34:35.979Z,67.1
2019-05-06T14:35:36.730Z,67.6
2019-05-06T14:36:37.489Z,66.7
2019-05-06T14:37:38.259Z,67.5
2019-05-06T14:38:39.030Z,67.6
2019-05-06T14:39:59.952Z,68.5
2019-05-06T14:41:09.026Z,68.1
2019-05-06T14:43:14.262Z,67.6
2019-05-06T14:44:15.023Z,68.5
2019-05-06T14:45:15.840Z,67.9
2019-05-06T14:46:16.597Z,68
2019-05-06T14:47:17.373Z,68.1
2019-05-06T14:48:18.131Z,68
2019-05-06T14:49:18.889Z,68.7
2019-05-06T14:50:19.726Z,69.4
2019-05-06T14:51:22.758Z,69.5
2019-05-06T14:53:27.265Z,69.8
2019-05-06T14:54:29.055Z,70
2019-05-06T14:55:29.903Z,70
2019-05-06T14:56:33.117Z,71
2019-05-06T14:57:33.883Z,68.9
2019-05-06T14:58:34.653Z,69
2019-05-06T14:59:35.449Z,67.6
2019-05-06T15:00:36.225Z,66.5
2019-05-06T15:01:37.095Z,64.9
2019-05-06T15:03:44.137Z,64.4
2019-05-06T15:04:44.943Z,64.4
2019-05-06T15:05:45.699Z,65.8
2019-05-06T15:06:46.465Z,65.6
2019-05-06T15:07:47.223Z,65.5
2019-05-06T15:08:47.998Z,66.3
2019-05-06T15:10:26.387Z,66.6
2019-05-06T15:11:27.619Z,66.8
2019-05-06T15:12:28.373Z,67
2019-05-06T15:14:34.058Z,66.4
2019-05-06T15:15:35.029Z,67.1
2019-05-06T15:16:35.797Z,66.8
2019-05-06T15:17:37.704Z,66.8
2019-05-06T15:18:38.455Z,64
2019-05-06T15:19:39.219Z,65.4
2019-05-06T15:20:42.645Z,66.3
2019-05-06T15:21:43.774Z,64.9
2019-05-06T15:22:44.536Z,65.8
2019-05-06T15:24:46.820Z,66.4
2019-05-06T15:25:47.595Z,65.1
2019-05-06T15:26:48.362Z,65.8
2019-05-06T15:27:49.130Z,66.5
2019-05-06T15:28:49.885Z,66.3
2019-05-06T15:29:53.991Z,65.2
2019-05-06T15:31:55.267Z,65.2
2019-05-06T15:32:56.037Z,64.4
2019-05-06T15:35:03.042Z,65.2
2019-05-06T15:36:03.851Z,64.4
2019-05-06T15:37:04.611Z,65.8
2019-05-06T15:38:08.379Z,64.5
2019-05-06T15:39:09.146Z,64.5
2019-05-06T15:40:12.302Z,64.6
2019-05-06T15:41:13.698Z,65.5
2019-05-06T15:42:14.461Z,66.1
2019-05-06T15:45:19.280Z,66.5
2019-05-06T15:47:24.121Z,66.9
2019-05-06T15:48:24.883Z,67.3
2019-05-06T15:49:25.635Z,67.3
2019-05-06T15:50:26.413Z,66.9
2019-05-06T15:51:27.202Z,66.6
2019-05-06T15:52:27.977Z,66.7
2019-05-06T15:53:28.760Z,67.6
2019-05-06T15:55:33.924Z,65.2
2019-05-06T15:56:34.720Z,65.8
2019-05-06T15:57:35.481Z,65.4
2019-05-06T15:58:36.434Z,65.6
2019-05-06T15:59:37.186Z,65.6
2019-05-06T16:00:43.293Z,65.4
2019-05-06T16:01:44.077Z,65.7